Time;durP1;ratioP1;P1;durP2;ratioP2;P2;SDS_P1;SDS_P2;PMS_P1;PMS_P2;Temp;Humidity;BMP_temperature;BMP_pressure;BME280_temperature;BME280_humidity;BME280_pressure;Samples;Min_cycle;Max_cycle;Signal;HPM_P1;HPM_P2
2024/02/03 00:00:25;;;;;;;0.88;0.88;;;;;;;1.43;100.00;101519.75;4883551;29;20048;-73
2024/02/03 00:02:50;;;;;;;0.50;0.50;;;;;;;1.13;100.00;101456.03;4888739;29;20577;-72
2024/02/03 00:05:16;;;;;;;1.50;1.40;;;;;;;1.34;100.00;101508.00;4885454;29;20436;-72
2024/02/03 00:07:42;;;;;;;1.95;1.85;;;;;;;0.99;100.00;101437.16;4889761;29;20045;-72
2024/02/03 00:10:08;;;;;;;6.75;6.40;;;;;;;0.93;100.00;101419.63;4892342;29;20083;-73
2024/02/03 00:12:33;;;;;;;6.95;6.53;;;;;;;1.08;100.00;101484.19;4882648;29;20188;-73
2024/02/03 00:14:59;;;;;;;0.57;0.57;;;;;;;1.24;100.00;101512.69;4886545;29;20137;-73
2024/02/03 00:17:25;;;;;;;5.18;4.78;;;;;;;0.77;100.00;101438.56;4888922;29;20773;-72
2024/02/03 00:19:53;;;;;;;16.25;14.77;;;;;;;1.14;100.00;101501.72;4883171;29;20080;-73
2024/02/03 00:22:19;;;;;;;2.88;2.67;;;;;;;0.69;100.00;101454.44;4889424;29;20099;-72
2024/02/03 00:24:45;;;;;;;9.75;5.68;;;;;;;1.01;100.00;101495.88;4887756;29;20478;-72
2024/02/03 00:27:10;;;;;;;4.15;3.90;;;;;;;0.88;100.00;101505.44;4887427;29;20501;-74
2024/02/03 00:29:36;;;;;;;2.05;1.95;;;;;;;-0.07;100.00;101317.59;4884785;29;20052;-73
2024/02/03 00:32:01;;;;;;;0.85;0.85;;;;;;;0.66;100.00;101431.91;4889082;29;20140;-73
2024/02/03 00:34:27;;;;;;;0.88;0.88;;;;;;;1.16;100.00;101528.56;4880913;29;20561;-73
2024/02/03 00:36:52;;;;;;;7.07;5.75;;;;;;;0.67;100.00;101438.84;4887404;29;20036;-73
2024/02/03 00:39:18;;;;;;;1.75;1.65;;;;;;;1.04;100.00;101510.66;4871239;29;20469;-74
2024/02/03 00:41:43;;;;;;;21.92;5.88;;;;;;;0.76;100.00;101469.47;4886204;29;20049;-73
2024/02/03 00:44:09;;;;;;;5.60;3.38;;;;;;;0.64;100.00;101428.34;4886996;29;20063;-75
2024/02/03 00:46:35;;;;;;;2.45;2.35;;;;;;;1.17;100.00;101519.97;4887762;29;20425;-74
2024/02/03 00:49:01;;;;;;;1.35;1.25;;;;;;;0.61;100.00;101429.06;4888558;29;20579;-74
2024/02/03 00:51:26;;;;;;;0.38;0.38;;;;;;;1.02;100.00;101510.56;4887376;29;20056;-75
2024/02/03 00:53:52;;;;;;;5.53;5.15;;;;;;;0.31;100.00;101414.41;4881762;29;20537;-74
2024/02/03 00:56:17;;;;;;;16.30;7.78;;;;;;;0.80;100.00;101516.22;4885670;29;20052;-74
2024/02/03 00:58:43;;;;;;;3.15;3.00;;;;;;;0.77;100.00;101503.16;4886461;29;20501;-74
2024/02/03 01:01:09;;;;;;;10.20;9.63;;;;;;;0.50;100.00;101497.28;4889801;29;20036;-72
2024/02/03 01:03:35;;;;;;;0.40;0.40;;;;;;;0.69;100.00;101475.09;4887944;29;20183;-72
2024/02/03 01:06:01;;;;;;;0.70;0.55;;;;;;;0.42;100.00;101428.78;4891610;29;20520;-73
2024/02/03 01:08:26;;;;;;;3.40;3.20;;;;;;;0.53;100.00;101443.22;4890296;29;20626;-74
2024/02/03 01:10:52;;;;;;;1.13;1.08;;;;;;;0.33;100.00;101400.78;4886018;29;20053;-73
2024/02/03 01:13:18;;;;;;;4.45;3.50;;;;;;;0.78;100.00;101496.28;4883817;29;20036;-72
2024/02/03 01:15:43;;;;;;;5.45;5.13;;;;;;;0.18;100.00;101400.78;4887785;29;20045;-73
2024/02/03 01:18:09;;;;;;;2.75;2.60;;;;;;;0.75;100.00;101496.09;4887187;29;20528;-72
2024/02/03 01:20:35;;;;;;;12.98;5.68;;;;;;;0.34;100.00;101412.00;4884220;29;20155;-73
2024/02/03 01:23:00;;;;;;;1.90;1.80;;;;;;;0.33;100.00;101408.53;4884619;29;20052;-72
2024/02/03 01:25:26;;;;;;;3.17;2.92;;;;;;;0.49;100.00;101412.88;4889432;29;20048;-74
2024/02/03 01:27:51;;;;;;;1.52;1.48;;;;;;;0.76;100.00;101483.28;4889066;29;20036;-73
2024/02/03 01:30:17;;;;;;;3.45;3.25;;;;;;;-0.11;100.00;101368.13;4885697;29;20072;-73
2024/02/03 01:32:43;;;;;;;0.93;0.93;;;;;;;0.68;100.00;101494.88;4887216;29;20105;-72
2024/02/03 01:35:09;;;;;;;0.93;0.93;;;;;;;0.75;100.00;101480.59;4887562;29;20061;-73
2024/02/03 01:37:35;;;;;;;6.13;5.82;;;;;;;0.76;100.00;101487.56;4887439;29;20067;-72
2024/02/03 01:40:01;;;;;;;2.95;2.75;;;;;;;0.30;100.00;101415.19;4890194;29;20067;-72
2024/02/03 01:42:27;;;;;;;4.03;3.80;;;;;;;0.48;100.00;101467.88;4886369;29;20044;-73
2024/02/03 01:44:53;;;;;;;7.40;6.80;;;;;;;0.75;100.00;101475.41;4889728;29;20135;-74
2024/02/03 01:47:19;;;;;;;1.02;1.00;;;;;;;0.11;100.00;101380.59;4888193;29;20072;-74
2024/02/03 01:49:45;;;;;;;3.33;3.13;;;;;;;0.14;100.00;101387.59;4886903;29;20493;-72
2024/02/03 01:52:13;;;;;;;7.63;7.15;;;;;;;0.61;100.00;101479.81;4892181;29;20052;-72
2024/02/03 01:54:43;;;;;;;1.33;1.30;;;;;;;0.06;100.00;101363.94;4890929;29;20080;-73
2024/02/03 01:57:09;;;;;;;0.75;0.75;;;;;;;0.11;100.00;101367.69;4885369;29;20570;-73
2024/02/03 01:59:36;;;;;;;2.55;2.35;;;;;;;0.65;100.00;101447.31;4891832;29;20055;-73
2024/02/03 02:02:02;;;;;;;3.72;3.60;;;;;;;0.17;100.00;101365.47;4917991;29;20088;-72
2024/02/03 02:04:29;;;;;;;2.58;2.47;;;;;;;0.03;100.00;101361.22;4893825;29;20833;-74
2024/02/03 02:06:55;;;;;;;8.32;7.63;;;;;;;0.38;100.00;101439.78;4884389;29;20041;-73
2024/02/03 02:09:22;;;;;;;1.10;1.10;;;;;;;-0.21;100.00;101334.88;4888707;29;20093;-73
2024/02/03 02:11:48;;;;;;;7.55;6.88;;;;;;;0.37;100.00;101438.84;4887664;29;20171;-72
2024/02/03 02:14:14;;;;;;;3.47;3.25;;;;;;;0.08;100.00;101393.31;4890605;29;20052;-74
2024/02/03 02:16:39;;;;;;;3.75;3.55;;;;;;;0.33;100.00;101418.84;4884435;29;20080;-74
2024/02/03 02:19:05;;;;;;;7.93;7.53;;;;;;;0.55;100.00;101458.81;4892672;29;20032;-72
2024/02/03 02:21:31;;;;;;;1.58;1.48;;;;;;;0.51;100.00;101437.06;4871012;29;20541;-72
2024/02/03 02:23:57;;;;;;;12.93;11.98;;;;;;;0.54;100.00;101457.00;4888597;29;20056;-73
2024/02/03 02:26:24;;;;;;;4.10;3.90;;;;;;;0.53;100.00;101460.41;4886764;29;20056;-73
2024/02/03 02:28:51;;;;;;;3.40;3.22;;;;;;;0.08;100.00;101385.56;4881553;29;20044;-72
2024/02/03 02:31:17;;;;;;;4.35;4.15;;;;;;;0.29;100.00;101400.53;4888042;29;20783;-73
2024/02/03 02:33:42;;;;;;;14.93;9.20;;;;;;;0.57;100.00;101452.03;4892823;29;20040;-74
2024/02/03 02:36:08;;;;;;;0.90;0.90;;;;;;;0.51;100.00;101449.09;4889703;29;20064;-73
2024/02/03 02:38:34;;;;;;;17.73;7.43;;;;;;;-0.10;100.00;101340.66;4888677;29;20136;-73
2024/02/03 02:40:59;;;;;;;10.43;9.77;;;;;;;-0.09;100.00;101379.44;4888439;29;20059;-73
2024/02/03 02:43:25;;;;;;;5.75;5.45;;;;;;;-0.10;100.00;101351.84;4871464;29;20137;-76
2024/02/03 02:45:51;;;;;;;1.27;1.25;;;;;;;-0.02;100.00;101362.63;4888646;29;20108;-73
2024/02/03 02:48:16;;;;;;;9.23;8.60;;;;;;;-0.06;100.00;101351.22;4888550;29;20052;-73
2024/02/03 02:50:42;;;;;;;4.95;4.63;;;;;;;0.46;100.00;101450.53;4886424;29;20044;-73
2024/02/03 02:53:07;;;;;;;3.17;3.00;;;;;;;0.18;100.00;101387.88;4890290;29;20095;-73
2024/02/03 02:55:33;;;;;;;0.57;0.57;;;;;;;0.38;100.00;101429.44;4891122;29;20076;-74
2024/02/03 02:57:58;;;;;;;0.50;0.50;;;;;;;-0.27;100.00;101344.84;4891141;29;20028;-73
2024/02/03 03:00:24;;;;;;;9.57;8.98;;;;;;;0.28;100.00;101443.53;4890930;29;20143;-73
2024/02/03 03:02:50;;;;;;;8.35;7.82;;;;;;;0.14;100.00;101393.69;4905884;29;20112;-73
2024/02/03 03:05:15;;;;;;;1.60;1.58;;;;;;;-0.16;100.00;101320.56;4889418;29;20045;-73
2024/02/03 03:07:41;;;;;;;1.73;1.63;;;;;;;0.30;100.00;101404.88;4891062;29;20101;-73
2024/02/03 03:10:06;;;;;;;1.00;1.00;;;;;;;0.23;100.00;101405.31;4891458;29;20037;-74
2024/02/03 03:12:33;;;;;;;3.88;3.67;;;;;;;0.19;100.00;101388.78;4887684;29;20136;-75
2024/02/03 03:14:58;;;;;;;1.58;1.52;;;;;;;0.25;100.00;101408.88;4889369;29;20048;-73
2024/02/03 03:17:24;;;;;;;0.68;0.68;;;;;;;-0.19;100.00;101342.69;4886123;29;20470;-73
2024/02/03 03:19:49;;;;;;;0.40;0.40;;;;;;;0.27;100.00;101405.59;4890375;29;20044;-75
2024/02/03 03:22:16;;;;;;;7.85;6.53;;;;;;;0.18;100.00;101398.19;4888036;29;20569;-73
2024/02/03 03:24:42;;;;;;;2.72;2.60;;;;;;;-0.48;100.00;101305.78;4879807;29;20220;-72
2024/02/03 03:27:08;;;;;;;5.15;4.82;;;;;;;-0.29;100.00;101342.16;4887595;29;20825;-73
2024/02/03 03:29:33;;;;;;;0.80;0.80;;;;;;;0.03;100.00;101383.53;4888242;29;20057;-73
2024/02/03 03:31:59;;;;;;;2.08;1.88;;;;;;;-0.30;100.00;101298.25;4888016;29;20823;-72
2024/02/03 03:34:25;;;;;;;10.05;8.95;;;;;;;0.24;100.00;101386.47;4888142;29;20498;-73
2024/02/03 03:36:51;;;;;;;4.18;3.92;;;;;;;-0.35;100.00;101282.50;4902711;29;20044;-72
2024/02/03 03:39:16;;;;;;;1.85;1.75;;;;;;;-0.39;100.00;101282.25;4886763;29;20054;-72
2024/02/03 03:41:42;;;;;;;13.25;7.97;;;;;;;-0.09;100.00;101361.38;4885890;29;20064;-72
2024/02/03 03:44:07;;;;;;;2.22;2.13;;;;;;;-0.26;100.00;101328.53;4884307;29;20954;-71
2024/02/03 03:46:33;;;;;;;5.72;5.45;;;;;;;-0.16;100.00;101348.06;4883851;29;20083;-72
2024/02/03 03:48:58;;;;;;;2.47;2.38;;;;;;;-0.71;100.00;101282.13;4902578;29;20048;-73
2024/02/03 03:51:24;;;;;;;1.00;1.00;;;;;;;-0.39;100.00;101319.22;4869934;29;20119;-73
2024/02/03 03:53:49;;;;;;;0.88;0.88;;;;;;;-0.30;100.00;101345.53;4882809;29;20056;-72
2024/02/03 03:56:15;;;;;;;89.25;6.03;;;;;;;-0.31;100.00;101354.06;4884794;29;20060;-72
2024/02/03 03:58:41;;;;;;;5.57;5.30;;;;;;;-0.40;100.00;101322.56;4885574;29;20588;-72
2024/02/03 04:01:09;;;;;;;6.50;6.18;;;;;;;-0.79;100.00;101248.97;4888223;29;20033;-73
2024/02/03 04:03:35;;;;;;;5.50;5.18;;;;;;;-0.50;100.00;101333.16;4886646;29;20044;-72
2024/02/03 04:06:00;;;;;;;0.40;0.40;;;;;;;-0.56;100.00;101307.94;4886603;29;20045;-73
2024/02/03 04:08:26;;;;;;;3.28;3.15;;;;;;;-0.98;100.00;101247.88;4887096;29;20048;-72
2024/02/03 04:10:51;;;;;;;16.63;15.00;;;;;;;-0.63;100.00;101310.94;4886447;29;20060;-74
2024/02/03 04:13:17;;;;;;;9.35;8.55;;;;;;;-1.19;100.00;101211.44;4884705;29;20058;-72
2024/02/03 04:15:43;;;;;;;1.25;1.20;;;;;;;-1.11;100.00;101235.06;4882693;29;20087;-73
2024/02/03 04:18:09;;;;;;;0.88;0.88;;;;;;;-0.89;100.00;101299.03;4887546;29;20052;-72
2024/02/03 04:20:34;;;;;;;1.77;1.67;;;;;;;-0.59;100.00;101307.72;4886624;29;20060;-72
2024/02/03 04:23:00;;;;;;;0.73;0.73;;;;;;;-0.59;100.00;101306.84;4883836;29;20513;-73
2024/02/03 04:25:25;;;;;;;1.63;1.55;;;;;;;-0.89;100.00;101270.72;4884657;29;20842;-73
2024/02/03 04:27:51;;;;;;;4.57;4.28;;;;;;;-1.45;100.00;101206.38;4882872;29;20061;-73
2024/02/03 04:30:18;;;;;;;1.40;1.30;;;;;;;-1.07;100.00;101292.00;4887205;29;20052;-73
2024/02/03 04:32:44;;;;;;;1.05;1.05;;;;;;;-1.42;100.00;101211.72;4881461;29;20048;-72
2024/02/03 04:35:10;;;;;;;1.17;0.77;;;;;;;-1.45;100.00;101212.44;4884427;29;20573;-72
2024/02/03 04:37:36;;;;;;;3.60;2.85;;;;;;;-0.81;100.00;101315.88;4880873;29;20057;-72
2024/02/03 04:40:02;;;;;;;3.70;3.50;;;;;;;-0.79;100.00;101329.72;4885622;29;20119;-73
2024/02/03 04:42:27;;;;;;;2.97;2.67;;;;;;;-1.32;100.00;101239.78;4887154;29;20048;-72
2024/02/03 04:44:53;;;;;;;5.55;5.28;;;;;;;-0.85;100.00;101337.09;4889044;29;20529;-73
2024/02/03 04:47:18;;;;;;;0.40;0.40;;;;;;;-1.02;100.00;101286.25;4883957;29;20501;-72
2024/02/03 04:49:44;;;;;;;0.90;0.90;;;;;;;-1.28;100.00;101241.78;4887045;29;20554;-73
2024/02/03 04:52:09;;;;;;;8.00;7.47;;;;;;;-1.27;100.00;101228.09;4890390;29;20868;-72
2024/02/03 04:54:35;;;;;;;0.40;0.40;;;;;;;-0.63;100.00;101318.66;4884765;29;20398;-73
2024/02/03 04:57:00;;;;;;;0.85;0.85;;;;;;;-0.66;100.00;101316.81;4870724;29;20552;-73
2024/02/03 04:59:26;;;;;;;0.40;0.40;;;;;;;-0.59;100.00;101318.03;4886239;29;20044;-72
2024/02/03 05:01:52;;;;;;;4.38;4.15;;;;;;;-0.51;100.00;101309.06;4884413;29;20119;-74
2024/02/03 05:04:17;;;;;;;2.38;2.28;;;;;;;-0.87;100.00;101227.91;4886796;29;20475;-72
2024/02/03 05:06:43;;;;;;;8.38;8.00;;;;;;;-0.81;100.00;101251.47;4888944;29;20064;-74
2024/02/03 05:09:08;;;;;;;1.33;1.23;;;;;;;-0.61;100.00;101280.97;4882662;29;20966;-73
2024/02/03 05:11:35;;;;;;;1.52;1.42;;;;;;;-1.34;100.00;101136.72;4878838;29;20060;-72
2024/02/03 05:14:00;;;;;;;5.18;4.85;;;;;;;-1.14;100.00;101197.16;4886482;29;20061;-72
2024/02/03 05:16:26;;;;;;;4.05;3.80;;;;;;;-0.51;100.00;101287.56;4886162;29;20066;-71
2024/02/03 05:18:52;;;;;;;6.70;6.20;;;;;;;-0.43;100.00;101309.53;4881793;29;20037;-73
2024/02/03 05:21:18;;;;;;;0.52;0.52;;;;;;;-0.99;100.00;101240.94;4898679;29;20674;-73
2024/02/03 05:23:44;;;;;;;0.63;0.63;;;;;;;-0.90;100.00;101238.03;4884890;29;20131;-72
2024/02/03 05:26:10;;;;;;;0.82;0.82;;;;;;;-1.04;100.00;101208.00;4884061;29;20401;-72
2024/02/03 05:28:35;;;;;;;5.07;4.70;;;;;;;-0.78;100.00;101249.06;4884438;29;20086;-73
2024/02/03 05:31:00;;;;;;;1.80;1.70;;;;;;;-0.43;100.00;101314.69;4900377;29;20132;-72
2024/02/03 05:33:26;;;;;;;2.35;2.25;;;;;;;-0.47;100.00;101325.59;4886773;29;20051;-73
2024/02/03 05:35:52;;;;;;;2.40;2.30;;;;;;;-0.46;100.00;101317.97;4885394;29;20354;-73
2024/02/03 05:38:17;;;;;;;2.25;2.17;;;;;;;-0.54;100.00;101315.72;4886064;29;20186;-74
2024/02/03 05:40:43;;;;;;;18.13;9.38;;;;;;;-0.52;100.00;101278.94;4879057;29;20459;-73
2024/02/03 05:43:08;;;;;;;0.65;0.65;;;;;;;-0.37;100.00;101299.56;4885847;29;20420;-73
2024/02/03 05:45:34;;;;;;;10.18;9.63;;;;;;;-1.81;100.00;101073.03;4886512;29;20071;-72
2024/02/03 05:48:00;;;;;;;6.65;6.18;;;;;;;-0.44;100.00;101307.75;4886405;29;20048;-73
2024/02/03 05:50:25;;;;;;;2.20;2.00;;;;;;;-0.81;100.00;101229.97;4890002;29;20409;-73
2024/02/03 05:52:51;;;;;;;4.30;3.92;;;;;;;-0.48;100.00;101291.19;4891391;29;20516;-74
2024/02/03 05:55:16;;;;;;;6.10;5.70;;;;;;;-0.85;100.00;101216.00;4866880;29;20131;-74
2024/02/03 05:57:52;;;;;;;18.92;15.75;;;;;;;-0.83;100.00;101216.97;4886083;29;20092;-73
2024/02/03 06:00:19;;;;;;;18.55;17.27;;;;;;;-0.79;100.00;101216.38;4888840;29;20388;-74
2024/02/03 06:02:46;;;;;;;5.70;5.30;;;;;;;-0.46;100.00;101314.50;4885039;29;20132;-73
2024/02/03 06:05:12;;;;;;;2.25;2.13;;;;;;;-0.73;100.00;101257.94;4885813;29;20605;-72
2024/02/03 06:07:38;;;;;;;2.15;2.05;;;;;;;-1.05;100.00;101183.94;4899703;29;20044;-72
2024/02/03 06:10:05;;;;;;;2.40;2.30;;;;;;;-0.34;100.00;101316.91;4890174;29;20120;-73
2024/02/03 06:12:30;;;;;;;3.60;3.40;;;;;;;-0.40;100.00;101301.94;4890106;29;20152;-72
2024/02/03 06:14:56;;;;;;;8.50;8.02;;;;;;;-0.14;100.00;101321.53;4887368;29;20412;-73
2024/02/03 06:17:21;;;;;;;7.70;7.25;;;;;;;-0.12;100.00;101332.81;4884691;29;20450;-73
2024/02/03 06:19:47;;;;;;;5.45;5.07;;;;;;;-0.64;100.00;101257.59;4883191;29;20950;-73
2024/02/03 06:22:13;;;;;;;16.88;15.75;;;;;;;-0.19;100.00;101311.75;4881607;29;20043;-71
2024/02/03 06:24:38;;;;;;;7.70;6.95;;;;;;;-0.29;100.00;101315.47;4889867;29;20061;-72
2024/02/03 06:27:05;;;;;;;25.88;11.70;;;;;;;-0.35;100.00;101297.97;4892329;29;20060;-74
2024/02/03 06:29:30;;;;;;;0.95;0.95;;;;;;;-0.14;100.00;101311.22;4885260;29;20510;-73
2024/02/03 06:31:56;;;;;;;2.05;1.95;;;;;;;-0.27;100.00;101307.03;4886142;29;20049;-72
2024/02/03 06:34:22;;;;;;;7.55;5.07;;;;;;;-0.08;100.00;101301.25;4891603;29;20032;-73
2024/02/03 06:36:47;;;;;;;5.55;5.35;;;;;;;-0.10;100.00;101301.97;4875184;29;20047;-72
2024/02/03 06:39:13;;;;;;;9.52;9.07;;;;;;;-0.56;100.00;101197.09;4892671;29;20581;-72
2024/02/03 06:41:40;;;;;;;0.77;0.77;;;;;;;-0.11;100.00;101264.09;4886809;29;20051;-73
2024/02/03 06:44:05;;;;;;;1.85;1.65;;;;;;;0.20;100.00;101283.03;4891151;29;20047;-73
2024/02/03 06:46:31;;;;;;;5.35;5.07;;;;;;;0.15;100.00;101266.44;4884698;29;20394;-73
2024/02/03 06:48:57;;;;;;;1.33;1.27;;;;;;;0.05;100.00;101258.06;4887573;29;20040;-71
2024/02/03 06:51:22;;;;;;;1.23;1.17;;;;;;;0.08;100.00;101269.47;4892324;29;20044;-74
2024/02/03 06:53:48;;;;;;;1.65;1.55;;;;;;;-0.08;100.00;101261.66;4891815;29;20565;-74
2024/02/03 06:56:13;;;;;;;1.60;1.50;;;;;;;-0.09;100.00;101255.63;4888132;29;20049;-73
2024/02/03 06:58:39;;;;;;;2.25;2.15;;;;;;;0.03;100.00;101258.00;4878341;29;20044;-73
2024/02/03 07:01:05;;;;;;;2.22;2.13;;;;;;;0.12;100.00;101234.41;4885998;29;20043;-72
2024/02/03 07:03:30;;;;;;;2.30;2.20;;;;;;;0.07;100.00;101210.03;4890069;29;20096;-73
2024/02/03 07:05:56;;;;;;;3.42;3.15;;;;;;;0.07;100.00;101239.31;4873235;29;20469;-72
2024/02/03 07:08:21;;;;;;;1.90;1.75;;;;;;;-0.26;100.00;101192.78;4891480;29;20047;-72
2024/02/03 07:10:47;;;;;;;0.57;0.57;;;;;;;-0.34;100.00;101151.91;4889846;29;20041;-72
2024/02/03 07:13:12;;;;;;;0.60;0.60;;;;;;;0.02;100.00;101203.72;4886859;29;20474;-73
2024/02/03 07:15:38;;;;;;;2.95;2.85;;;;;;;-0.48;100.00;101113.34;4889436;29;21020;-73
2024/02/03 07:18:03;;;;;;;0.50;0.50;;;;;;;0.25;100.00;101217.91;4891710;29;20064;-72
2024/02/03 07:20:29;;;;;;;2.55;2.35;;;;;;;0.38;100.00;101230.69;4887425;29;20485;-72
2024/02/03 07:22:54;;;;;;;24.45;18.75;;;;;;;0.39;100.00;101228.16;4889890;29;20489;-75
2024/02/03 07:25:20;;;;;;;0.40;0.40;;;;;;;0.00;100.00;101121.13;4890031;29;20385;-72
2024/02/03 07:27:45;;;;;;;1.48;1.42;;;;;;;0.28;100.00;101153.53;4892439;29;20031;-71
2024/02/03 07:30:11;;;;;;;1.13;1.08;;;;;;;0.68;100.00;101203.03;4888240;29;20048;-71
2024/02/03 07:32:37;;;;;;;2.20;2.10;;;;;;;0.56;100.00;101161.03;4890067;29;20461;-72
2024/02/03 07:35:03;;;;;;;19.90;11.85;;;;;;;0.45;100.00;101175.09;4890688;29;20045;-71
2024/02/03 07:37:28;;;;;;;9.25;8.70;;;;;;;0.46;100.00;101193.25;4891299;29;20140;-72
2024/02/03 07:39:54;;;;;;;11.10;10.15;;;;;;;0.26;100.00;101101.84;4887760;29;20059;-73
2024/02/03 07:42:19;;;;;;;4.32;4.13;;;;;;;0.74;100.00;101164.59;4891170;29;20106;-71
2024/02/03 07:44:45;;;;;;;7.18;6.78;;;;;;;0.26;100.00;101080.28;4886698;29;20105;-72
2024/02/03 07:47:12;;;;;;;6.32;3.17;;;;;;;0.57;100.00;101192.13;4889168;29;20060;-74
2024/02/03 07:49:37;;;;;;;1.13;1.08;;;;;;;0.20;100.00;101098.94;4890708;29;20044;-71
2024/02/03 07:52:04;;;;;;;1.05;1.05;;;;;;;0.91;100.00;101193.88;4870767;29;20047;-72
2024/02/03 07:54:29;;;;;;;0.95;0.95;;;;;;;0.16;100.00;101073.78;4869359;29;20060;-73
2024/02/03 07:56:55;;;;;;;3.88;3.47;;;;;;;0.53;100.00;101110.13;4889418;29;20060;-72
2024/02/03 07:59:20;;;;;;;1.60;1.50;;;;;;;-0.39;100.00;100909.31;4884436;29;20048;-73
2024/02/03 08:01:46;;;;;;;20.50;19.25;;;;;;;1.26;100.00;101159.50;4889753;29;20072;-73
2024/02/03 08:04:12;;;;;;;19.70;9.10;;;;;;;1.24;100.00;101147.28;4872718;29;20036;-74
2024/02/03 08:06:37;;;;;;;0.40;0.40;;;;;;;1.25;100.00;101146.47;4888462;29;20102;-72
2024/02/03 08:09:03;;;;;;;0.50;0.50;;;;;;;1.26;100.00;101150.81;4885878;29;20048;-72
2024/02/03 08:11:29;;;;;;;0.63;0.63;;;;;;;1.26;100.00;101132.72;4881397;29;20116;-72
2024/02/03 08:13:54;;;;;;;0.95;0.95;;;;;;;1.15;100.00;101127.03;4886098;29;20486;-72
2024/02/03 08:16:20;;;;;;;1.73;1.63;;;;;;;1.51;100.00;101167.56;4899257;29;20552;-73
2024/02/03 08:18:45;;;;;;;3.38;3.08;;;;;;;1.57;100.00;101149.72;4885244;29;20036;-73
2024/02/03 08:21:11;;;;;;;1.55;1.48;;;;;;;1.55;100.00;101120.34;4871335;29;20076;-74
2024/02/03 08:23:36;;;;;;;3.92;3.75;;;;;;;1.92;100.00;101166.03;4882940;29;20045;-73
2024/02/03 08:26:02;;;;;;;0.70;0.70;;;;;;;1.44;100.00;101070.69;4884958;29;20057;-73
2024/02/03 08:28:28;;;;;;;0.38;0.38;;;;;;;1.98;100.00;101154.28;4888647;29;20040;-72
2024/02/03 08:30:54;;;;;;;7.43;6.28;;;;;;;1.71;100.00;101085.72;4888832;29;20480;-72
2024/02/03 08:33:20;;;;;;;7.85;7.32;;;;;;;2.29;100.00;101163.47;4887549;29;20084;-71
2024/02/03 08:35:45;;;;;;;0.88;0.88;;;;;;;2.08;100.00;101116.75;4884313;29;20064;-71
2024/02/03 08:38:12;;;;;;;0.57;0.57;;;;;;;2.21;100.00;101134.63;4883995;29;20774;-71
2024/02/03 08:40:38;;;;;;;1.02;1.02;;;;;;;1.86;100.00;101051.09;4883748;29;20040;-73
2024/02/03 08:43:04;;;;;;;2.75;2.60;;;;;;;2.08;100.00;101052.06;4888410;29;20481;-71
2024/02/03 08:45:30;;;;;;;0.63;0.63;;;;;;;2.23;100.00;101052.75;4867674;29;20061;-72
2024/02/03 08:47:55;;;;;;;39.90;12.85;;;;;;;2.47;100.00;101147.88;4888037;29;20043;-73
2024/02/03 08:50:21;;;;;;;0.80;0.80;;;;;;;2.57;100.00;101143.97;4889478;29;20053;-73
2024/02/03 08:52:47;;;;;;;2.55;2.45;;;;;;;2.20;100.00;101049.13;4869820;29;20040;-73
2024/02/03 08:55:12;;;;;;;0.75;0.75;;;;;;;2.08;100.00;101046.88;4888426;29;20083;-72
2024/02/03 08:57:39;;;;;;;2.50;2.40;;;;;;;2.74;100.00;101110.22;4890066;29;20047;-73
2024/02/03 09:00:05;;;;;;;1.02;1.02;;;;;;;2.88;100.00;101109.91;4882314;29;20496;-74
2024/02/03 09:02:32;;;;;;;5.40;5.15;;;;;;;2.67;100.00;101071.00;4882176;29;20421;-73
2024/02/03 09:05:01;;;;;;;0.40;0.40;;;;;;;2.51;100.00;101041.88;4886278;29;20048;-73
2024/02/03 09:07:27;;;;;;;2.00;1.90;;;;;;;2.82;100.00;101122.63;4887102;29;20127;-73
2024/02/03 09:09:53;;;;;;;2.80;2.70;;;;;;;3.10;100.00;101099.63;4883841;29;20143;-75
2024/02/03 09:12:18;;;;;;;1.77;1.67;;;;;;;2.83;100.00;101021.59;4871264;29;20528;-74
2024/02/03 09:14:44;;;;;;;0.43;0.43;;;;;;;3.43;100.00;101095.75;4882143;29;20045;-72
2024/02/03 09:17:09;;;;;;;1.10;1.10;;;;;;;3.26;100.00;101038.91;4885888;29;20503;-73
2024/02/03 09:19:35;;;;;;;0.35;0.35;;;;;;;3.52;100.00;101083.13;4886911;29;20056;-70
2024/02/03 09:22:01;;;;;;;2.08;1.98;;;;;;;3.77;100.00;101078.06;4886769;29;20119;-75
2024/02/03 09:24:26;;;;;;;9.68;5.75;;;;;;;3.54;100.00;100985.50;4882112;29;20075;-71
2024/02/03 09:26:52;;;;;;;2.95;2.75;;;;;;;4.04;100.00;101069.53;4886249;29;20080;-71
2024/02/03 09:29:18;;;;;;;1.17;1.05;;;;;;;4.05;100.00;101041.84;4887349;29;20430;-73
2024/02/03 09:31:43;;;;;;;1.98;1.88;;;;;;;4.26;100.00;101054.72;4890055;29;20040;-72
2024/02/03 09:34:09;;;;;;;4.93;4.63;;;;;;;4.49;100.00;101058.16;4888365;29;20457;-71
2024/02/03 09:36:42;;;;;;;0.50;0.50;;;;;;;4.19;100.00;100978.31;4889869;29;20052;-71
2024/02/03 09:39:07;;;;;;;5.93;5.57;;;;;;;4.72;100.00;101040.75;4888043;29;20045;-72
2024/02/03 09:41:33;;;;;;;0.30;0.30;;;;;;;4.25;100.00;100957.75;4886175;29;20513;-71
2024/02/03 09:43:59;;;;;;;0.30;0.30;;;;;;;4.78;100.00;101044.44;4887404;29;20079;-72
2024/02/03 09:46:26;;;;;;;3.25;3.10;;;;;;;4.62;100.00;101030.03;4890194;29;20036;-73
2024/02/03 09:48:51;;;;;;;3.35;3.15;;;;;;;4.15;100.00;100972.13;4873547;29;20036;-70
2024/02/03 09:51:17;;;;;;;2.05;1.80;;;;;;;4.08;100.00;100948.50;4886537;29;20417;-72
2024/02/03 09:53:47;;;;;;;1.45;1.40;;;;;;;4.16;100.00;100919.34;4886794;29;20059;-71
2024/02/03 09:56:12;;;;;;;1.85;1.75;;;;;;;5.09;100.00;101003.84;4886897;29;20053;-73
2024/02/03 09:58:38;;;;;;;7.60;4.95;;;;;;;4.93;100.00;100941.78;4883954;29;20047;-70
2024/02/03 10:01:03;;;;;;;0.50;0.40;;;;;;;4.91;100.00;100936.53;4883225;29;20033;-79
2024/02/03 10:03:29;;;;;;;21.02;16.80;;;;;;;5.29;100.00;100984.53;4886558;29;20068;-75
2024/02/03 10:06:02;;;;;;;0.43;0.43;;;;;;;5.36;100.00;100990.81;4891475;29;20087;-73
2024/02/03 10:08:29;;;;;;;1.35;1.35;;;;;;;5.08;100.00;100929.25;4889478;29;20115;-71
2024/02/03 10:10:55;;;;;;;1.20;1.15;;;;;;;5.02;100.00;100906.53;4886879;29;20055;-71
2024/02/03 10:13:25;;;;;;;1.52;1.42;;;;;;;5.07;100.00;100904.06;4887563;29;20048;-73
2024/02/03 10:16:02;;;;;;;3.15;1.58;;;;;;;5.75;100.00;100976.31;4906655;29;20068;-72
2024/02/03 10:18:31;;;;;;;0.73;0.73;;;;;;;5.69;100.00;100961.41;4882596;29;20047;-75
2024/02/03 10:20:59;;;;;;;0.73;0.73;;;;;;;5.41;100.00;100958.00;4883798;29;20089;-72
2024/02/03 10:23:25;;;;;;;0.70;0.70;;;;;;;5.49;100.00;100942.59;4886423;29;20092;-72
2024/02/03 10:26:00;;;;;;;1.25;1.20;;;;;;;5.20;100.00;100874.13;4890925;29;20158;-70
2024/02/03 10:28:27;;;;;;;1.60;0.70;;;;;;;5.75;100.00;100955.50;4884594;29;20100;-71
2024/02/03 10:30:57;;;;;;;4.40;4.20;;;;;;;5.33;100.00;100889.22;4901295;29;20036;-70
2024/02/03 10:33:23;;;;;;;0.47;0.47;;;;;;;5.89;100.00;100957.63;4882874;29;20052;-72
2024/02/03 10:35:49;;;;;;;4.25;3.95;;;;;;;6.23;100.00;100963.81;4890602;29;20130;-71
2024/02/03 10:38:14;;;;;;;0.30;0.30;;;;;;;6.13;100.00;100964.38;4890075;29;20446;-73
2024/02/03 10:40:41;;;;;;;0.30;0.30;;;;;;;6.22;100.00;100955.94;4867891;29;20045;-70
2024/02/03 10:43:29;;;;;;;2.28;2.15;;;;;;;6.42;100.00;100953.88;4882719;29;20040;-71
2024/02/03 10:46:04;;;;;;;1.65;1.55;;;;;;;6.36;100.00;100938.94;4880179;29;20063;-72
2024/02/03 10:48:33;;;;;;;2.28;2.17;;;;;;;6.32;100.00;100940.59;4868606;29;20048;-75
2024/02/03 10:51:02;;;;;;;0.50;0.50;;;;;;;6.31;100.00;100931.00;4888760;29;20048;-74
2024/02/03 10:53:41;;;;;;;0.40;0.40;;;;;;;6.47;100.00;100931.41;4870995;29;20482;-75
2024/02/03 10:56:11;;;;;;;0.30;0.30;;;;;;;6.05;100.00;100865.19;4888116;29;20172;-76
2024/02/03 10:58:39;;;;;;;2.85;2.65;;;;;;;6.43;100.00;100924.34;4889545;29;20056;-74
2024/02/03 11:01:21;;;;;;;1.63;1.52;;;;;;;5.85;100.00;100850.72;4900545;29;20092;-73
2024/02/03 11:03:51;;;;;;;1.20;1.05;;;;;;;6.53;100.00;100884.59;4883254;29;20594;-73
2024/02/03 11:06:27;;;;;;;1.45;1.38;;;;;;;6.85;100.00;100900.13;4886924;29;20052;-72
2024/02/03 11:08:53;;;;;;;0.40;0.40;;;;;;;6.79;100.00;100886.94;4883141;29;20127;-75
2024/02/03 11:11:27;;;;;;;1.05;1.05;;;;;;;6.84;100.00;100874.91;4889974;29;20136;-71
2024/02/03 11:13:56;;;;;;;0.73;0.73;;;;;;;6.91;100.00;100799.44;4886656;29;20053;-78
2024/02/03 11:16:21;;;;;;;0.73;0.60;;;;;;;6.58;100.00;100806.50;4886436;29;20100;-74